createdAt,value
2022-12-31T00:00:38.149Z,31.90
2022-12-31T00:03:25.040Z,33.10
2022-12-31T00:05:52.340Z,32.80
2022-12-31T00:08:19.657Z,36.30
2022-12-31T00:10:47.155Z,32.10
2022-12-31T00:13:14.773Z,38.30
2022-12-31T00:15:42.956Z,35.30
2022-12-31T00:18:10.813Z,36.70
2022-12-31T00:20:40.715Z,36.00
2022-12-31T00:23:09.658Z,34.90
2022-12-31T00:25:37.506Z,35.10
2022-12-31T00:28:05.376Z,33.40
2022-12-31T00:30:33.985Z,33.60
2022-12-31T00:33:01.092Z,32.20
2022-12-31T00:35:28.448Z,30.80
2022-12-31T00:37:56.113Z,31.60
2022-12-31T00:40:23.160Z,32.80
2022-12-31T00:42:50.426Z,32.60
2022-12-31T00:45:17.875Z,33.50
2022-12-31T00:47:44.917Z,31.70
2022-12-31T00:50:12.003Z,32.20
2022-12-31T00:52:39.528Z,31.90
2022-12-31T00:55:07.498Z,34.50
2022-12-31T00:57:34.671Z,31.10
2022-12-31T01:00:01.897Z,29.50
2022-12-31T01:02:29.660Z,30.60
2022-12-31T01:04:57.325Z,30.30
2022-12-31T01:07:24.790Z,30.90
2022-12-31T01:09:53.469Z,33.10
2022-12-31T01:12:20.871Z,35.40
2022-12-31T01:14:48.283Z,37.10
2022-12-31T01:17:16.975Z,37.80
2022-12-31T01:19:44.245Z,36.00
2022-12-31T01:22:11.799Z,36.10
2022-12-31T01:24:39.066Z,39.40
2022-12-31T01:27:06.453Z,35.60
2022-12-31T01:29:33.819Z,35.80
2022-12-31T01:32:00.922Z,34.50
2022-12-31T01:34:28.255Z,35.50
2022-12-31T01:36:55.924Z,37.30
2022-12-31T01:39:23.314Z,36.50
2022-12-31T01:41:50.526Z,37.10
2022-12-31T01:44:38.258Z,37.60
2022-12-31T01:47:10.936Z,40.30
2022-12-31T01:49:47.103Z,36.80
2022-12-31T01:52:36.471Z,36.50
2022-12-31T01:55:19.874Z,35.80
2022-12-31T01:57:51.411Z,36.20
2022-12-31T02:00:19.208Z,36.00
2022-12-31T02:02:46.545Z,35.50
2022-12-31T02:05:47.827Z,35.90
2022-12-31T02:08:16.310Z,35.00
2022-12-31T02:10:43.766Z,35.20
2022-12-31T02:13:11.130Z,34.20
2022-12-31T02:15:59.490Z,33.30
2022-12-31T02:18:35.737Z,31.50
2022-12-31T02:21:26.441Z,34.40
2022-12-31T02:24:18.469Z,34.30
2022-12-31T02:27:01.498Z,35.10
2022-12-31T02:29:34.599Z,34.10
2022-12-31T02:32:16.211Z,33.80
2022-12-31T02:34:54.783Z,33.70
2022-12-31T02:37:24.462Z,33.00
2022-12-31T02:39:52.036Z,32.90
2022-12-31T02:42:19.107Z,34.40
2022-12-31T02:44:46.671Z,36.30
2022-12-31T02:47:21.500Z,32.90
2022-12-31T02:49:54.596Z,33.40
2022-12-31T02:52:34.056Z,33.80
2022-12-31T02:55:13.378Z,34.00
2022-12-31T02:58:07.263Z,35.60
2022-12-31T03:01:08.293Z,31.70
2022-12-31T03:03:37.205Z,30.40
2022-12-31T03:06:07.674Z,34.10
2022-12-31T03:08:54.928Z,34.80
2022-12-31T03:11:41.230Z,36.20
2022-12-31T03:14:08.896Z,34.30
2022-12-31T03:16:41.369Z,38.30
2022-12-31T03:19:27.181Z,36.10
2022-12-31T03:22:13.154Z,36.40
2022-12-31T03:24:59.362Z,35.20
2022-12-31T03:27:26.698Z,34.70
2022-12-31T03:29:53.925Z,41.30
2022-12-31T03:32:21.005Z,41.60
2022-12-31T03:34:48.640Z,41.40
2022-12-31T03:37:15.604Z,40.00
2022-12-31T03:39:42.776Z,31.00
2022-12-31T03:42:10.318Z,38.60
2022-12-31T03:44:37.368Z,37.10
2022-12-31T03:47:05.027Z,39.40
2022-12-31T03:49:32.487Z,40.70
2022-12-31T03:51:59.841Z,41.80
2022-12-31T03:54:27.197Z,40.20
2022-12-31T03:56:59.941Z,42.30
2022-12-31T03:59:27.711Z,39.60
2022-12-31T04:01:55.238Z,41.20
2022-12-31T04:04:22.663Z,41.60
2022-12-31T04:06:50.116Z,44.50
2022-12-31T04:09:17.574Z,42.80
2022-12-31T04:11:44.945Z,45.40
2022-12-31T04:14:12.128Z,41.10
2022-12-31T04:16:39.574Z,41.30
2022-12-31T04:19:07.610Z,40.60
2022-12-31T04:21:35.317Z,41.40
2022-12-31T04:24:03.252Z,42.40
2022-12-31T04:26:30.701Z,39.90
2022-12-31T04:28:58.677Z,34.20
2022-12-31T04:31:26.812Z,35.80
2022-12-31T04:33:54.199Z,38.70
2022-12-31T04:36:21.455Z,40.20
2022-12-31T04:38:48.716Z,39.20
2022-12-31T04:41:22.303Z,36.90
2022-12-31T04:43:55.531Z,38.20
2022-12-31T04:46:28.407Z,40.00
2022-12-31T04:48:56.050Z,39.20
2022-12-31T04:51:24.340Z,40.70
2022-12-31T04:53:51.925Z,39.40
2022-12-31T04:56:19.341Z,41.00
2022-12-31T04:58:46.901Z,36.70
2022-12-31T05:01:18.151Z,34.80
2022-12-31T05:03:46.054Z,37.40
2022-12-31T05:06:19.719Z,35.90
2022-12-31T05:08:48.127Z,37.70
2022-12-31T05:11:15.705Z,36.70
2022-12-31T05:13:43.731Z,36.70
2022-12-31T05:16:11.548Z,36.80
2022-12-31T05:18:38.876Z,36.60
2022-12-31T05:21:06.496Z,36.70
2022-12-31T05:23:34.691Z,37.30
2022-12-31T05:26:02.964Z,34.60
2022-12-31T05:28:30.427Z,36.00
2022-12-31T05:30:58.304Z,32.90
2022-12-31T05:33:25.761Z,33.20
2022-12-31T05:35:53.066Z,36.50
2022-12-31T05:38:22.303Z,31.90
2022-12-31T05:40:49.564Z,31.80
2022-12-31T05:43:17.217Z,36.00
2022-12-31T05:45:44.550Z,33.10
2022-12-31T05:48:12.035Z,36.40
2022-12-31T05:50:39.384Z,34.20
2022-12-31T05:53:08.582Z,34.10
2022-12-31T05:55:35.653Z,33.70
2022-12-31T05:58:02.682Z,33.00
2022-12-31T06:00:30.139Z,36.00
2022-12-31T06:02:57.298Z,34.10
2022-12-31T06:05:26.497Z,36.40
2022-12-31T06:07:54.479Z,36.60
2022-12-31T06:10:21.917Z,34.80
2022-12-31T06:12:49.066Z,37.30
2022-12-31T06:15:16.625Z,37.00
2022-12-31T06:17:43.794Z,33.20
2022-12-31T06:20:13.436Z,36.00
2022-12-31T06:22:40.942Z,35.80
2022-12-31T06:25:08.609Z,35.50
2022-12-31T06:27:35.983Z,30.80
2022-12-31T06:30:04.041Z,33.40
2022-12-31T06:32:31.313Z,31.60
2022-12-31T06:34:58.747Z,32.00
2022-12-31T06:37:26.000Z,30.80
2022-12-31T06:39:53.247Z,30.30
2022-12-31T06:42:20.506Z,32.70
2022-12-31T06:44:48.057Z,32.50
2022-12-31T06:47:15.277Z,31.20
2022-12-31T06:49:42.360Z,29.70
2022-12-31T06:52:10.739Z,31.50
2022-12-31T06:54:38.307Z,33.10
2022-12-31T06:57:06.070Z,33.00
2022-12-31T06:59:33.933Z,33.30
2022-12-31T07:02:01.282Z,35.80
2022-12-31T07:04:40.624Z,32.50
2022-12-31T07:07:53.858Z,32.60
2022-12-31T07:10:43.742Z,29.00
2022-12-31T07:13:31.584Z,31.50
2022-12-31T07:16:20.300Z,31.10
2022-12-31T07:19:17.300Z,31.50
2022-12-31T07:21:45.470Z,31.00
2022-12-31T07:24:14.039Z,32.70
2022-12-31T07:27:08.128Z,29.50
2022-12-31T07:29:57.501Z,32.20
2022-12-31T07:33:02.943Z,30.30
2022-12-31T07:35:56.418Z,31.40
2022-12-31T07:38:54.387Z,30.30
2022-12-31T07:41:29.013Z,30.20
2022-12-31T07:44:25.959Z,32.20
2022-12-31T07:46:59.843Z,29.80
2022-12-31T07:49:29.612Z,29.90
2022-12-31T07:51:58.368Z,32.10
2022-12-31T07:54:25.837Z,33.10
2022-12-31T07:56:53.286Z,28.10
2022-12-31T07:59:36.081Z,26.20
2022-12-31T08:02:15.659Z,30.60
2022-12-31T08:05:02.054Z,27.80
2022-12-31T08:07:32.678Z,28.00
2022-12-31T08:10:12.562Z,29.50
2022-12-31T08:12:45.537Z,30.50
2022-12-31T08:15:18.492Z,30.70
2022-12-31T08:17:46.271Z,30.40
2022-12-31T08:20:16.743Z,32.20
2022-12-31T08:23:14.671Z,30.10
2022-12-31T08:26:01.071Z,30.30
2022-12-31T08:29:00.885Z,29.70
2022-12-31T08:31:35.363Z,30.00
2022-12-31T08:34:23.246Z,28.20
2022-12-31T08:37:10.978Z,28.20
2022-12-31T08:39:44.686Z,28.20
2022-12-31T08:42:29.756Z,31.40
2022-12-31T08:45:07.661Z,30.90
2022-12-31T08:48:02.709Z,27.70
2022-12-31T08:50:30.852Z,28.40
2022-12-31T08:52:58.821Z,27.90
2022-12-31T08:55:26.889Z,30.00
2022-12-31T08:58:22.198Z,29.40
2022-12-31T09:00:56.758Z,30.60
2022-12-31T09:04:02.637Z,33.30
2022-12-31T09:06:43.652Z,32.80
2022-12-31T09:09:39.783Z,31.30
2022-12-31T09:12:25.572Z,30.90
2022-12-31T09:15:10.747Z,30.40
2022-12-31T09:17:41.375Z,30.50
2022-12-31T09:20:17.853Z,30.80
2022-12-31T09:22:45.716Z,30.10
2022-12-31T09:25:17.293Z,32.30
2022-12-31T09:27:50.569Z,29.20
2022-12-31T09:30:18.753Z,30.00
2022-12-31T09:33:01.544Z,27.30
2022-12-31T09:35:49.077Z,28.10
2022-12-31T09:38:29.457Z,26.50
2022-12-31T09:41:34.284Z,29.10
2022-12-31T09:44:01.769Z,28.30
2022-12-31T09:47:06.936Z,27.50
2022-12-31T09:49:46.014Z,27.60
2022-12-31T09:52:56.384Z,28.50
2022-12-31T09:55:49.042Z,27.90
2022-12-31T09:58:37.892Z,28.30
2022-12-31T10:01:30.407Z,28.20
2022-12-31T10:04:03.530Z,26.40
2022-12-31T10:07:28.851Z,27.00
2022-12-31T10:10:05.599Z,25.30
2022-12-31T10:12:52.025Z,25.00
2022-12-31T10:15:19.683Z,25.00
2022-12-31T10:18:04.313Z,23.90
2022-12-31T10:20:46.248Z,25.30
2022-12-31T10:23:16.671Z,24.60
2022-12-31T10:25:53.480Z,24.50
2022-12-31T10:28:35.760Z,24.10
2022-12-31T10:31:44.806Z,24.40
2022-12-31T10:34:25.150Z,23.80
2022-12-31T10:37:04.078Z,23.90
2022-12-31T10:40:00.050Z,23.00
2022-12-31T10:42:44.561Z,24.00
2022-12-31T10:45:23.695Z,22.40
2022-12-31T10:48:16.558Z,23.50
2022-12-31T10:50:53.736Z,22.50
2022-12-31T10:53:39.421Z,22.70
2022-12-31T10:56:21.524Z,22.40
2022-12-31T10:58:54.302Z,24.00
2022-12-31T11:01:32.554Z,22.80
2022-12-31T11:04:02.738Z,24.00
2022-12-31T11:07:01.545Z,24.40
2022-12-31T11:10:00.237Z,24.80
2022-12-31T11:12:49.393Z,25.30
2022-12-31T11:15:50.610Z,26.50
2022-12-31T11:18:36.731Z,25.90
2022-12-31T11:21:28.496Z,25.50
2022-12-31T11:24:33.616Z,24.10
2022-12-31T11:27:18.075Z,24.70
2022-12-31T11:29:58.935Z,23.70
2022-12-31T11:32:28.749Z,24.40
2022-12-31T11:35:18.224Z,22.50
2022-12-31T11:38:03.403Z,23.50
2022-12-31T11:40:43.490Z,24.30
2022-12-31T11:43:17.801Z,23.90
2022-12-31T11:45:50.700Z,24.60
2022-12-31T11:48:37.017Z,25.10
2022-12-31T11:51:29.300Z,24.20
2022-12-31T11:54:34.235Z,24.10
2022-12-31T11:57:37.275Z,24.90
2022-12-31T12:00:18.355Z,25.80
2022-12-31T12:02:53.491Z,25.30
2022-12-31T12:05:24.590Z,24.30
2022-12-31T12:07:53.071Z,25.70
2022-12-31T12:10:37.178Z,25.40
2022-12-31T12:13:12.977Z,24.30
2022-12-31T12:15:44.815Z,24.50
2022-12-31T12:18:31.033Z,24.20
2022-12-31T12:21:12.524Z,23.70
2022-12-31T12:23:42.033Z,26.00
2022-12-31T12:26:32.629Z,24.30
2022-12-31T12:29:10.110Z,23.50
2022-12-31T12:31:38.662Z,24.90
2022-12-31T12:34:20.910Z,24.00
2022-12-31T12:36:48.476Z,24.20
2022-12-31T12:39:24.017Z,23.60
2022-12-31T12:42:07.451Z,24.90
2022-12-31T12:44:35.424Z,26.30
2022-12-31T12:47:06.502Z,23.20
2022-12-31T12:49:54.103Z,23.60
2022-12-31T12:52:32.312Z,24.30
2022-12-31T12:55:11.853Z,25.00
2022-12-31T12:57:52.617Z,24.00
2022-12-31T13:01:04.252Z,23.80
2022-12-31T13:03:31.979Z,25.30
2022-12-31T13:06:04.766Z,25.30
2022-12-31T13:09:18.709Z,25.60
2022-12-31T13:11:52.312Z,23.70
2022-12-31T13:14:39.126Z,24.20
2022-12-31T13:17:27.778Z,25.30
2022-12-31T13:20:13.875Z,23.90
2022-12-31T13:22:47.784Z,24.30
2022-12-31T13:25:29.889Z,24.00
2022-12-31T13:28:04.729Z,23.10
2022-12-31T13:30:51.956Z,24.10
2022-12-31T13:33:26.662Z,23.30
2022-12-31T13:35:56.179Z,22.90
2022-12-31T13:38:33.677Z,23.20
2022-12-31T13:41:08.811Z,22.20
2022-12-31T13:44:17.738Z,21.50
2022-12-31T13:46:51.037Z,23.00
2022-12-31T13:49:43.148Z,21.80
2022-12-31T13:52:35.410Z,22.70
2022-12-31T13:55:27.579Z,22.50
2022-12-31T14:00:31.062Z,22.20
2022-12-31T14:02:58.147Z,21.20
2022-12-31T14:05:42.062Z,22.60
2022-12-31T14:08:10.850Z,22.20
2022-12-31T14:10:57.762Z,20.80
2022-12-31T14:13:34.762Z,21.00
2022-12-31T14:16:31.870Z,21.10
2022-12-31T14:19:20.142Z,20.90
2022-12-31T14:22:33.988Z,20.10
2022-12-31T14:25:10.050Z,20.80
2022-12-31T14:27:42.630Z,20.20
2022-12-31T14:30:16.144Z,20.40
2022-12-31T14:33:01.712Z,20.90
2022-12-31T14:35:48.942Z,20.70
2022-12-31T14:38:37.180Z,20.10
2022-12-31T14:41:07.919Z,20.30
2022-12-31T14:44:09.676Z,20.00
2022-12-31T14:47:05.606Z,20.70
2022-12-31T14:49:45.349Z,21.90
2022-12-31T14:52:16.196Z,20.30
2022-12-31T14:54:43.749Z,20.30
2022-12-31T14:57:25.028Z,20.70
2022-12-31T15:00:00.583Z,22.40
2022-12-31T15:02:34.099Z,21.50
2022-12-31T15:05:12.508Z,22.70
2022-12-31T15:07:48.043Z,20.80
2022-12-31T15:10:18.988Z,20.40
2022-12-31T15:12:56.068Z,24.10
2022-12-31T15:15:23.726Z,24.40
2022-12-31T15:18:03.372Z,24.80
2022-12-31T15:20:39.452Z,24.70
2022-12-31T15:23:25.039Z,25.10
2022-12-31T15:26:01.084Z,25.10
2022-12-31T15:28:39.853Z,26.20
2022-12-31T15:31:18.798Z,25.20
2022-12-31T15:34:06.097Z,24.20
2022-12-31T15:36:38.095Z,25.60
2022-12-31T15:39:11.859Z,27.50
2022-12-31T15:42:10.457Z,29.20
2022-12-31T15:44:31.004Z,27.20
2022-12-31T15:47:21.830Z,29.00
2022-12-31T15:49:50.494Z,27.80
2022-12-31T15:52:26.150Z,27.90
2022-12-31T15:54:57.604Z,27.00
2022-12-31T15:57:39.237Z,26.10
2022-12-31T16:00:24.466Z,26.70
2022-12-31T16:02:55.528Z,26.90
2022-12-31T16:05:27.379Z,26.40
2022-12-31T16:07:57.181Z,25.30
2022-12-31T16:10:30.666Z,25.20
2022-12-31T16:12:59.288Z,27.40
2022-12-31T16:15:31.147Z,28.40
2022-12-31T16:18:09.548Z,26.50
2022-12-31T16:20:48.187Z,28.40
2022-12-31T16:23:22.688Z,27.90
2022-12-31T16:25:53.036Z,28.10
2022-12-31T16:28:25.879Z,30.10
2022-12-31T16:31:16.808Z,29.30
2022-12-31T16:33:45.025Z,30.80
2022-12-31T16:36:30.868Z,30.80
2022-12-31T16:39:24.043Z,32.30
2022-12-31T16:41:53.224Z,31.10
2022-12-31T16:44:28.676Z,31.30
2022-12-31T16:46:59.404Z,30.40
2022-12-31T16:49:30.148Z,28.10
2022-12-31T16:52:30.360Z,28.50
2022-12-31T16:54:58.436Z,28.10
2022-12-31T16:57:29.988Z,25.80
2022-12-31T17:00:02.627Z,25.60
2022-12-31T17:03:29.956Z,25.50
2022-12-31T17:06:57.091Z,28.20
2022-12-31T17:14:21.564Z,52.70
2022-12-31T17:21:09.379Z,45.60
2022-12-31T17:24:41.593Z,41.00
2022-12-31T17:27:29.357Z,41.00
2022-12-31T17:30:58.947Z,39.00
2022-12-31T17:34:29.933Z,30.10
2022-12-31T17:38:06.038Z,31.10
2022-12-31T17:41:41.727Z,29.30
2022-12-31T17:44:17.832Z,30.20
2022-12-31T17:46:45.396Z,33.10
2022-12-31T17:49:16.245Z,33.50
2022-12-31T17:51:47.567Z,32.90
2022-12-31T17:56:44.653Z,35.90
2022-12-31T17:59:21.387Z,36.50
2022-12-31T18:01:49.097Z,33.00
2022-12-31T18:04:20.908Z,35.70
2022-12-31T18:06:47.965Z,34.70
2022-12-31T18:09:15.997Z,32.50
2022-12-31T18:11:44.980Z,31.70
2022-12-31T18:14:15.537Z,32.80
2022-12-31T18:16:43.015Z,31.20
2022-12-31T18:19:37.894Z,30.00
2022-12-31T18:22:02.146Z,31.50
2022-12-31T18:24:29.744Z,28.30
2022-12-31T18:26:56.846Z,30.60
2022-12-31T18:29:24.292Z,28.50
2022-12-31T18:31:51.898Z,28.80
2022-12-31T18:34:19.217Z,28.70
2022-12-31T18:36:47.501Z,30.30
2022-12-31T18:39:14.751Z,28.30
2022-12-31T18:41:49.167Z,30.20
2022-12-31T18:44:17.269Z,28.50
2022-12-31T18:46:44.332Z,29.70
2022-12-31T18:49:11.659Z,30.50
2022-12-31T18:51:39.113Z,29.90
2022-12-31T18:54:09.018Z,27.70
2022-12-31T18:56:39.513Z,29.30
2022-12-31T18:59:09.206Z,28.80
2022-12-31T19:01:40.872Z,30.00
2022-12-31T19:06:42.289Z,26.30
2022-12-31T19:09:30.725Z,26.90
2022-12-31T19:11:57.680Z,28.50
2022-12-31T19:14:26.161Z,28.70
2022-12-31T19:16:54.181Z,26.60
2022-12-31T19:19:21.869Z,29.00
2022-12-31T19:21:49.103Z,27.50
2022-12-31T19:24:21.193Z,28.60
2022-12-31T19:26:49.479Z,28.20
2022-12-31T19:29:19.609Z,24.80
2022-12-31T19:31:47.593Z,26.30
2022-12-31T19:34:15.343Z,27.30
2022-12-31T19:36:44.255Z,25.80
2022-12-31T19:39:17.343Z,28.00
2022-12-31T19:41:51.472Z,27.30
2022-12-31T19:44:23.519Z,26.30
2022-12-31T19:46:51.167Z,27.30
2022-12-31T19:49:18.321Z,28.20
2022-12-31T19:51:45.371Z,26.30
2022-12-31T19:54:13.197Z,25.40
2022-12-31T19:56:41.034Z,26.50
2022-12-31T19:59:09.930Z,25.70
2022-12-31T20:01:37.787Z,27.80
2022-12-31T20:04:05.672Z,27.40
2022-12-31T20:06:32.991Z,26.00
2022-12-31T20:09:02.360Z,26.70
2022-12-31T20:11:29.405Z,27.20
2022-12-31T20:13:56.789Z,26.30
2022-12-31T20:16:31.024Z,26.10
2022-12-31T20:18:58.096Z,27.60
2022-12-31T20:21:28.587Z,25.50
2022-12-31T20:23:56.194Z,25.40
2022-12-31T20:26:24.797Z,23.90
2022-12-31T20:28:52.904Z,25.40
2022-12-31T20:31:23.968Z,22.20
2022-12-31T20:33:53.574Z,24.70
2022-12-31T20:36:21.900Z,21.80
2022-12-31T20:38:49.801Z,21.40
2022-12-31T20:41:20.234Z,22.10
2022-12-31T20:43:48.318Z,23.00
2022-12-31T20:46:19.071Z,22.70
2022-12-31T20:48:48.225Z,20.40
2022-12-31T20:51:16.744Z,23.90
2022-12-31T20:53:50.467Z,21.10
2022-12-31T20:56:18.496Z,22.90
2022-12-31T20:58:45.852Z,22.80
2022-12-31T21:01:16.852Z,24.30
2022-12-31T21:06:35.130Z,20.50
2022-12-31T21:09:05.352Z,22.60
2022-12-31T21:11:51.187Z,21.50
2022-12-31T21:14:19.340Z,21.90
2022-12-31T21:16:46.817Z,25.40
2022-12-31T21:19:14.122Z,26.60
2022-12-31T21:21:41.611Z,26.60
2022-12-31T21:24:09.266Z,25.10
2022-12-31T21:26:36.540Z,24.90
2022-12-31T21:29:03.991Z,25.70
2022-12-31T21:31:31.281Z,25.00
2022-12-31T21:33:58.970Z,25.00
2022-12-31T21:36:26.268Z,26.40
2022-12-31T21:38:53.311Z,26.00
2022-12-31T21:41:39.487Z,23.60
2022-12-31T21:44:07.161Z,26.10
2022-12-31T21:46:34.863Z,25.80
2022-12-31T21:49:02.501Z,25.10
2022-12-31T21:51:30.248Z,27.80
2022-12-31T21:53:57.849Z,26.60
2022-12-31T21:56:25.266Z,26.30
2022-12-31T21:59:16.513Z,25.50
2022-12-31T22:02:02.606Z,28.80
2022-12-31T22:07:17.709Z,24.90
2022-12-31T22:09:45.127Z,27.30
2022-12-31T22:12:12.431Z,24.70
2022-12-31T22:15:15.547Z,23.10
2022-12-31T22:17:27.911Z,25.50
2022-12-31T22:22:44.730Z,26.40
2022-12-31T22:25:12.779Z,24.60
2022-12-31T22:27:40.037Z,23.90
2022-12-31T22:30:08.426Z,24.30
2022-12-31T22:32:35.586Z,24.10
2022-12-31T22:35:03.338Z,24.90
2022-12-31T22:40:17.965Z,28.50
2022-12-31T22:42:45.370Z,35.10
2022-12-31T22:45:12.620Z,44.40
2022-12-31T22:47:40.161Z,35.40
2022-12-31T22:50:08.054Z,33.60
2022-12-31T22:52:35.049Z,34.50
2022-12-31T22:55:02.469Z,37.80
2022-12-31T22:57:29.815Z,42.10
2022-12-31T22:59:57.161Z,38.60
2022-12-31T23:02:24.410Z,38.30
2022-12-31T23:04:51.981Z,36.30
2022-12-31T23:07:19.530Z,39.50
2022-12-31T23:10:05.641Z,35.10
2022-12-31T23:12:33.222Z,36.80
2022-12-31T23:15:19.305Z,34.80
2022-12-31T23:18:05.295Z,30.50
2022-12-31T23:20:50.994Z,30.40
2022-12-31T23:23:18.321Z,32.10
2022-12-31T23:25:48.029Z,31.10
2022-12-31T23:28:18.355Z,30.40
2022-12-31T23:30:46.013Z,28.60
2022-12-31T23:33:17.195Z,27.90
2022-12-31T23:35:44.825Z,26.10
2022-12-31T23:38:13.234Z,27.10
2022-12-31T23:40:40.559Z,26.30
2022-12-31T23:43:08.634Z,24.30
2022-12-31T23:45:36.125Z,27.90
2022-12-31T23:48:04.331Z,28.80
2022-12-31T23:50:32.242Z,28.40
2022-12-31T23:52:59.691Z,35.20
2022-12-31T23:55:27.046Z,31.60
2022-12-31T23:57:54.946Z,34.60
